• Join FlightAware (Why Join?)
  • Login
  • US Flag 
02:41AM EDT


 

Airport Tracker/Info


-or-


 

Live Flight TrackerFlight Track Log ✈ SWA1668 ✈ 07-May-2013 ✈ KOAK - KSLC

Flight Track Log - Related Links

Times and Time Zones

All times are in EDT time to prevent confusion due to time zone crossing. See the SWA1668 flight status page for this flight to view local times or setup timezone preferences in your user account.

Time Position Orientation Groundspeed Altitude Reporting Facility
EDT Latitude Longitude Course Direction KTS MPH feet Rate Location/Type
10:07PM 37.7333 -122.2667 345° North 171 197 2,500  Level Northern Cal TRACON
10:08PM 37.7833 -122.2833 345° North 224 258 4,100 1,800 Climbing Northern Cal TRACON
10:08PM 37.8000 -122.2550 53° Northeast 224 258 5,100 3,120 Climbing Oakland Center
10:09PM 37.8283 -122.1719 67° East 256 295 8,800 3,120 Climbing Oakland Center
10:10PM 37.8664 -122.0797 62° Northeast 293 337 11,500 3,720 Climbing Oakland Center
10:11PM 37.9164 -121.9511 64° Northeast 339 390 16,400 3,840 Climbing Oakland Center
10:12PM 37.9597 -121.8406 64° Northeast 350 403 19,400 2,880 Climbing Oakland Center
10:13PM 38.0078 -121.7192 63° Northeast 381 438 22,300 2,820 Climbing Oakland Center
10:15PM 38.0558 -121.5969 63° Northeast 389 448 25,200 2,460 Climbing Oakland Center
10:16PM 38.0989 -121.4831 64° Northeast 398 458 27,400 2,340 Climbing Oakland Center
10:17PM 38.1594 -121.3269 64° Northeast 411 473 30,000 2,160 Climbing Oakland Center
10:18PM 38.2106 -121.1942 64° Northeast 419 482 31,800 1,920 Climbing Oakland Center
10:19PM 38.2608 -121.0617 64° Northeast 420 483 34,000 1,620 Climbing Oakland Center
10:20PM 38.3139 -120.9272 63° Northeast 426 490 35,100 1,140 Climbing Oakland Center
10:21PM 38.3658 -120.7864 65° Northeast 441 507 36,400 1,200 Climbing Oakland Center
10:22PM 38.4197 -120.6450 64° Northeast 447 514 37,600 1,080 Climbing Oakland Center
10:23PM 38.4731 -120.5011 65° Northeast 451 519 38,700 1,080 Climbing Oakland Center
10:24PM 38.5275 -120.3567 64° Northeast 453 521 39,900 960 Climbing Oakland Center
10:25PM 38.5808 -120.2106 65° Northeast 455 524 40,700 540 Climbing Oakland Center
10:26PM 38.6361 -120.0639 64° Northeast 457 526 41,000 120 Climbing Oakland Center
10:27PM 38.7019 -119.8892 64° Northeast 456 525 41,000  Level Oakland Center
10:28PM 38.7481 -119.7608 65° Northeast 457 526 41,000  Level Oakland Center
10:29PM 38.8014 -119.6164 65° Northeast 451 519 41,000  Level Oakland Center
10:30PM 38.8542 -119.4700 65° Northeast 453 521 41,000  Level Oakland Center
10:31PM 38.9144 -119.2936 66° East 452 520 41,000  Level Oakland Center
10:32PM 38.9675 -119.1483 65° Northeast 450 518 41,000  Level Oakland Center
10:33PM 39.0189 -119.0031 65° Northeast 450 518 41,000  Level Oakland Center
10:34PM 39.0717 -118.8586 65° Northeast 449 517 41,000  Level Oakland Center
10:35PM 39.1231 -118.7139 65° Northeast 450 518 41,000  Level Oakland Center
10:36PM 39.1736 -118.5692 66° East 451 519 41,000  Level Oakland Center
10:37PM 39.2239 -118.4269 65° Northeast 453 521 41,000  Level Oakland Center
10:38PM 39.2764 -118.2764 66° East 454 522 41,000  Level Oakland Center
10:39PM 39.3278 -118.1297 66° East 452 520 41,000  Level Oakland Center
10:40PM 39.3892 -117.9531 66° East 452 520 41,000  Level Oakland Center
10:41PM 39.4336 -117.8028 69° East 450 518 41,000  Level Oakland Center
10:42PM 39.4767 -117.6517 70° East 448 516 41,000  Level Oakland Center
10:43PM 39.5192 -117.5011 70° East 446 513 41,000  Level Oakland Center
10:44PM 39.5606 -117.3583 69° East 444 511 41,000  Level Oakland Center
10:45PM 39.6072 -117.1903 70° East 444 511 41,000  Level Oakland Center
10:46PM 39.6472 -117.0469 70° East 443 510 41,000  Level Oakland Center
10:46PM 39.6603 -116.9975 71° East 444 511 41,000  Level Salt Lake Center
10:47PM 39.7006 -116.8536 70° East 445 512 41,000  Level Salt Lake Center
10:48PM 39.7403 -116.7092 70° East 445 512 41,000  Level Salt Lake Center
10:49PM 39.7861 -116.5400 71° East 447 514 41,000  Level Salt Lake Center
10:50PM 39.8258 -116.3956 70° East 446 513 41,000  Level Salt Lake Center
10:51PM 39.8714 -116.2272 71° East 444 511 41,000  Level Salt Lake Center
10:52PM 39.9106 -116.0825 71° East 445 512 41,000  Level Salt Lake Center
10:53PM 39.9572 -115.9117 70° East 447 514 41,000  Level Salt Lake Center
10:54PM 39.9961 -115.7656 71° East 447 514 41,000  Level Salt Lake Center
10:55PM 40.0342 -115.6197 71° East 445 512 41,000  Level Salt Lake Center
10:57PM 40.0794 -115.4492 71° East 445 512 41,000  Level Salt Lake Center
10:58PM 40.1178 -115.3025 71° East 446 513 41,000  Level Salt Lake Center
10:59PM 40.1619 -115.1317 71° East 445 512 41,000  Level Salt Lake Center
11:00PM 40.2000 -114.9833 71° East 448 516 41,000  Level Salt Lake Center
11:01PM 40.2386 -114.8358 71° East 448 516 41,000  Level Salt Lake Center
11:02PM 40.2811 -114.6664 72° East 447 514 41,000  Level Salt Lake Center
11:03PM 40.3208 -114.5122 71° East 447 514 41,000 -420 Level Salt Lake Center
11:04PM 40.3589 -114.3583 72° East 447 514 40,200 -1,680 Descending Salt Lake Center
11:05PM 40.3981 -114.2053 71° East 443 510 37,600 -2,340 Descending Salt Lake Center
11:06PM 40.4347 -114.0536 72° East 440 506 35,500 -2,400 Descending Salt Lake Center
11:07PM 40.4694 -113.9114 72° East 417 480 32,700 -2,220 Descending Salt Lake Center
11:08PM 40.5022 -113.7786 72° East 389 448 31,000 -1,920 Descending Salt Lake Center
11:09PM 40.5389 -113.6314 72° East 356 410 28,800 -2,040 Descending Salt Lake Center
11:10PM 40.5675 -113.5133 72° East 343 395 26,900 -1,920 Descending Salt Lake Center
11:11PM 40.5956 -113.3911 73° East 349 402 25,000 -1,920 Descending Salt Lake Center
11:12PM 40.6278 -113.2675 71° East 355 409 23,100 -1,860 Descending Salt Lake Center
11:13PM 40.6539 -113.1447 74° East 352 405 21,200 -1,860 Descending Salt Lake Center
11:14PM 40.6828 -113.0250 72° East 344 396 19,300 -1,860 Descending Salt Lake Center
11:15PM 40.7106 -112.9086 72° East 337 388 17,500 -1,140 Descending Salt Lake Center
11:16PM 40.7242 -112.7792 82° East 317 365 17,000 -300 Descending Salt Lake Center
11:17PM 40.7233 -112.6833 91° East 309 356 17,000 -600 Level Salt Lake Center
11:18PM 40.7217 -112.5736 91° East 303 349 16,000 -1,080 Descending Salt Lake Center
11:19PM 40.7200 -112.4642 91° East 299 344 14,900 -1,320 Descending Salt Lake Center
11:20PM 40.7142 -112.3558 94° East 300 345 13,400 -1,560 Descending Salt Lake Center
11:21PM 40.7158 -112.2308 89° East 300 345 11,700 -1,140 Descending Salt Lake Center
11:22PM 40.7331 -112.1317 77° East 286 329 11,000 -1,380 Descending Salt Lake Center
11:23PM 40.8067 -112.1011 17° North 298 343 9,000 -1,680 Descending Salt Lake Center
11:24PM 40.8903 -112.1078 357° North 290 334 7,400 -1,020 Descending Salt Lake Center
11:25PM 40.9422 -112.0781 23° Northeast 235 270 7,000 -780 Descending Salt Lake Center
11:26PM 40.9150 -112.0161 120° Southeast 197 227 6,000 -780 Descending Salt Lake Center
11:27PM 40.8744 -112.0072 171° South 145 167 5,500 -600 Descending Salt Lake Center
11:28PM 40.8350 -112.0036 176° South 140 161 4,800 -600 Descending Salt Lake Center
11:29PM 40.7928 -111.9969 173° South 131 151 4,300 -420 Descending Salt Lake Center
11:31PM 40.7884 -111.9778 159° South  Level Estimated